createdAt,value
2023-03-22T00:00:08.684Z,26.76
2023-03-22T00:04:08.784Z,26.76
2023-03-22T00:08:08.785Z,26.72
2023-03-22T00:12:08.832Z,26.73
2023-03-22T00:16:08.816Z,26.72
2023-03-22T00:20:08.798Z,26.74
2023-03-22T00:24:08.821Z,26.70
2023-03-22T00:28:08.856Z,26.69
2023-03-22T00:32:08.870Z,26.70
2023-03-22T00:36:08.952Z,26.69
2023-03-22T00:40:08.979Z,26.68
2023-03-22T00:44:09.055Z,26.67
2023-03-22T00:48:09.204Z,26.66
2023-03-22T00:52:09.259Z,26.64
2023-03-22T00:56:09.386Z,26.65
2023-03-22T01:00:09.388Z,26.64
2023-03-22T01:04:09.367Z,26.64
2023-03-22T01:08:09.365Z,26.63
2023-03-22T01:12:09.350Z,26.62
2023-03-22T01:16:09.352Z,26.65
2023-03-22T01:20:09.330Z,26.60
2023-03-22T01:24:09.300Z,26.59
2023-03-22T01:28:09.280Z,26.60
2023-03-22T01:32:09.281Z,26.59
2023-03-22T01:36:09.316Z,26.58
2023-03-22T01:40:09.259Z,26.57
2023-03-22T01:44:09.235Z,26.55
2023-03-22T01:48:09.262Z,26.55
2023-03-22T01:52:09.246Z,26.51
2023-03-22T01:56:09.223Z,26.50
2023-03-22T02:00:09.211Z,26.52
2023-03-22T02:04:09.225Z,26.50
2023-03-22T02:08:09.224Z,26.49
2023-03-22T02:12:09.243Z,26.47
2023-03-22T02:16:09.349Z,26.45
2023-03-22T02:20:09.294Z,26.43
2023-03-22T02:24:09.311Z,26.43
2023-03-22T02:28:09.335Z,26.42
2023-03-22T02:32:09.357Z,26.38
2023-03-22T02:36:09.365Z,26.40
2023-03-22T02:40:09.338Z,26.38
2023-03-22T02:44:09.322Z,26.35
2023-03-22T02:48:09.309Z,26.35
2023-03-22T02:52:09.279Z,26.35
2023-03-22T02:56:09.282Z,26.32
2023-03-22T03:00:09.237Z,26.29
2023-03-22T03:04:09.260Z,26.29
2023-03-22T03:08:09.240Z,26.27
2023-03-22T03:12:09.249Z,26.27
2023-03-22T03:16:09.250Z,26.25
2023-03-22T03:20:09.226Z,26.25
2023-03-22T03:24:09.203Z,26.24
2023-03-22T03:28:09.195Z,26.22
2023-03-22T03:32:09.201Z,26.20
2023-03-22T03:36:09.201Z,26.18
2023-03-22T03:40:09.192Z,26.19
2023-03-22T03:44:09.160Z,26.17
2023-03-22T03:48:09.318Z,26.14
2023-03-22T03:52:09.178Z,26.14
2023-03-22T03:56:09.209Z,26.13
2023-03-22T04:00:09.176Z,26.10
2023-03-22T04:04:09.227Z,26.09
2023-03-22T04:08:09.275Z,26.10
2023-03-22T04:12:09.324Z,26.07
2023-03-22T04:16:09.343Z,26.06
2023-03-22T04:20:09.344Z,26.01
2023-03-22T04:24:09.382Z,26.03
2023-03-22T04:28:09.421Z,26.01
2023-03-22T04:32:09.493Z,25.97
2023-03-22T04:36:09.547Z,25.94
2023-03-22T04:40:09.578Z,25.92
2023-03-22T04:44:09.580Z,25.91
2023-03-22T04:48:09.698Z,25.93
2023-03-22T04:52:09.639Z,25.88
2023-03-22T04:56:09.702Z,25.84
2023-03-22T05:00:09.740Z,25.86
2023-03-22T05:04:09.757Z,25.82
2023-03-22T05:08:09.766Z,25.80
2023-03-22T05:12:09.808Z,25.75
2023-03-22T05:16:09.972Z,25.76
2023-03-22T05:20:09.865Z,25.76
2023-03-22T05:24:09.860Z,25.69
2023-03-22T05:28:09.884Z,25.69
2023-03-22T05:32:09.921Z,25.65
2023-03-22T05:36:09.910Z,25.67
2023-03-22T05:40:09.927Z,25.63
2023-03-22T05:44:09.885Z,25.56
2023-03-22T05:48:09.950Z,25.50
2023-03-22T05:52:09.914Z,25.38
2023-03-22T05:56:09.927Z,25.16
2023-03-22T06:00:09.876Z,25.08
2023-03-22T06:04:09.810Z,24.86
2023-03-22T06:08:09.776Z,23.87
2023-03-22T06:12:09.732Z,21.41
2023-03-22T06:16:09.728Z,19.96
2023-03-22T06:20:09.648Z,19.14
2023-03-22T06:24:09.884Z,21.03
2023-03-22T06:28:09.591Z,22.36
2023-03-22T06:32:09.547Z,23.65
2023-03-22T06:36:09.844Z,24.32
2023-03-22T06:40:09.880Z,25.14
2023-03-22T06:44:09.495Z,25.58
2023-03-22T06:48:09.774Z,25.81
2023-03-22T06:52:09.845Z,26.08
2023-03-22T06:56:09.929Z,26.49
2023-03-22T07:00:10.033Z,26.65
2023-03-22T07:04:10.180Z,26.87
2023-03-22T07:08:10.231Z,26.98
2023-03-22T07:12:10.334Z,27.10
2023-03-22T07:16:10.388Z,27.42
2023-03-22T07:20:10.440Z,27.29
2023-03-22T07:24:10.515Z,27.49
2023-03-22T07:28:10.658Z,27.65
2023-03-22T07:32:10.979Z,28.16
2023-03-22T07:36:11.357Z,27.92
2023-03-22T07:40:11.017Z,27.98
2023-03-22T07:44:17.727Z,28.15
2023-03-22T07:48:12.198Z,27.92
2023-03-22T07:52:11.078Z,27.98
2023-03-22T07:56:11.150Z,28.03
2023-03-22T08:00:11.043Z,28.13
2023-03-22T08:04:11.165Z,28.32
2023-03-22T08:08:11.248Z,28.72
2023-03-22T08:12:11.335Z,28.74
2023-03-22T08:16:11.449Z,28.87
2023-03-22T08:20:11.508Z,28.93
2023-03-22T08:24:12.167Z,29.03
2023-03-22T08:28:11.888Z,29.03
2023-03-22T08:32:11.944Z,29.15
2023-03-22T08:36:11.910Z,29.03
2023-03-22T08:40:12.065Z,29.03
2023-03-22T08:44:12.125Z,29.24
2023-03-22T08:48:12.434Z,28.99
2023-03-22T08:52:12.522Z,29.04
2023-03-22T08:56:12.589Z,29.01
2023-03-22T09:00:12.738Z,29.13
2023-03-22T09:04:13.390Z,28.40
2023-03-22T09:08:19.196Z,26.58
2023-03-22T09:12:14.367Z,25.60
2023-03-22T09:16:12.995Z,25.97
2023-03-22T09:20:13.488Z,26.31
2023-03-22T09:24:13.371Z,24.83
2023-03-22T09:28:13.271Z,24.97
2023-03-22T09:32:13.316Z,24.91
2023-03-22T09:36:13.385Z,24.98
2023-03-22T09:40:13.890Z,25.38
2023-03-22T09:44:13.507Z,25.76
2023-03-22T09:48:13.714Z,26.21
2023-03-22T09:52:13.935Z,26.44
2023-03-22T09:56:14.376Z,27.23
2023-03-22T10:00:14.179Z,27.16
2023-03-22T10:04:14.191Z,26.39
2023-03-22T10:08:14.273Z,26.38
2023-03-22T10:12:14.311Z,26.91
2023-03-22T10:16:14.438Z,27.26
2023-03-22T10:20:14.284Z,27.19
2023-03-22T10:24:14.263Z,27.25
2023-03-22T10:28:14.200Z,25.57
2023-03-22T10:32:14.160Z,25.98
2023-03-22T10:36:14.135Z,26.67
2023-03-22T10:40:14.401Z,26.40
2023-03-22T10:44:14.035Z,26.59
2023-03-22T10:48:14.416Z,26.26
2023-03-22T10:52:14.382Z,26.33
2023-03-22T10:56:13.948Z,26.27
2023-03-22T11:00:14.369Z,26.25
2023-03-22T11:04:13.866Z,26.46
2023-03-22T11:08:13.810Z,26.31
2023-03-22T11:12:14.374Z,26.24
2023-03-22T11:16:13.936Z,26.17
2023-03-22T11:20:13.837Z,26.14
2023-03-22T11:24:13.880Z,26.38
2023-03-22T11:28:13.740Z,26.40
2023-03-22T11:32:13.777Z,24.39
2023-03-22T11:36:13.678Z,23.57
2023-03-22T11:40:13.640Z,23.17
2023-03-22T11:44:13.607Z,23.87
2023-03-22T11:48:13.649Z,24.00
2023-03-22T11:52:13.529Z,23.79
2023-03-22T11:56:13.480Z,23.78
2023-03-22T12:00:13.457Z,23.88
2023-03-22T12:04:13.407Z,23.67
2023-03-22T12:08:13.896Z,23.82
2023-03-22T12:12:13.527Z,23.71
2023-03-22T12:16:13.983Z,22.33
2023-03-22T12:20:13.901Z,22.46
2023-03-22T12:24:13.728Z,22.80
2023-03-22T12:28:13.726Z,22.44
2023-03-22T12:32:13.722Z,22.48
2023-03-22T12:36:13.784Z,22.35
2023-03-22T12:40:13.670Z,22.30
2023-03-22T12:44:13.667Z,22.57
2023-03-22T12:48:13.747Z,22.65
2023-03-22T12:52:13.784Z,22.36
2023-03-22T12:56:13.864Z,22.54
2023-03-22T13:00:13.939Z,22.29
2023-03-22T13:04:14.057Z,22.37
2023-03-22T13:08:14.129Z,22.32
2023-03-22T13:12:14.396Z,21.99
2023-03-22T13:16:14.446Z,23.22
2023-03-22T13:20:14.398Z,23.77
2023-03-22T13:24:14.464Z,23.51
2023-03-22T13:28:14.684Z,23.57
2023-03-22T13:32:14.950Z,23.54
2023-03-22T13:36:15.021Z,23.53
2023-03-22T13:40:15.126Z,23.59
2023-03-22T13:44:15.253Z,23.61
2023-03-22T13:48:15.412Z,23.65
2023-03-22T13:52:15.421Z,23.63
2023-03-22T13:56:15.559Z,23.64
2023-03-22T14:00:16.429Z,23.65
2023-03-22T14:04:15.688Z,23.66
2023-03-22T14:08:15.766Z,23.60
2023-03-22T14:12:15.833Z,23.62
2023-03-22T14:16:15.939Z,23.63
2023-03-22T14:20:16.020Z,23.64
2023-03-22T14:49:16.778Z,23.54
2023-03-22T14:53:17.052Z,23.54
2023-03-22T14:57:19.225Z,23.48
2023-03-22T15:01:17.669Z,23.49
2023-03-22T15:05:17.004Z,23.45
2023-03-22T15:09:16.606Z,23.45
2023-03-22T15:13:16.563Z,23.44
2023-03-22T15:17:16.529Z,23.47
2023-03-22T15:21:16.538Z,23.47
2023-03-22T15:25:16.523Z,23.47
2023-03-22T15:29:16.504Z,23.51
2023-03-22T15:33:16.548Z,23.53
2023-03-22T15:37:16.519Z,23.53
2023-03-22T15:41:16.546Z,23.54
2023-03-22T15:45:16.553Z,23.56
2023-03-22T15:49:16.563Z,23.62
2023-03-22T15:53:16.531Z,23.65
2023-03-22T15:57:16.533Z,23.69
2023-03-22T16:01:16.574Z,23.71
2023-03-22T16:05:16.557Z,23.73
2023-03-22T16:09:16.594Z,23.76
2023-03-22T16:13:16.634Z,23.82
2023-03-22T16:17:16.624Z,23.87
2023-03-22T16:21:16.688Z,23.88
2023-03-22T16:25:16.681Z,23.91
2023-03-22T16:29:16.704Z,23.97
2023-03-22T16:33:16.783Z,24.05
2023-03-22T16:37:16.812Z,24.06
2023-03-22T16:41:16.868Z,24.14
2023-03-22T16:45:16.923Z,24.15
2023-03-22T16:49:17.001Z,24.19
2023-03-22T16:53:17.072Z,24.20
2023-03-22T16:57:17.135Z,24.23
2023-03-22T17:01:17.238Z,24.26
2023-03-22T17:05:17.289Z,24.28
2023-03-22T17:09:17.372Z,24.31
2023-03-22T17:13:17.445Z,24.29
2023-03-22T17:17:17.538Z,24.34
2023-03-22T17:21:17.657Z,24.32
2023-03-22T17:25:17.743Z,24.34
2023-03-22T17:29:17.862Z,24.36
2023-03-22T17:33:18.138Z,24.33
2023-03-22T17:37:18.102Z,24.34
2023-03-22T17:41:18.191Z,24.35
2023-03-22T17:45:18.348Z,24.37
2023-03-22T17:49:18.473Z,24.37
2023-03-22T17:53:48.816Z,24.38
2023-03-22T18:01:18.619Z,24.42
2023-03-22T18:05:24.651Z,24.41
2023-03-22T18:09:19.487Z,24.39
2023-03-22T18:13:18.460Z,24.43
2023-03-22T18:17:18.511Z,24.44
2023-03-22T18:21:18.541Z,24.44
2023-03-22T18:25:18.691Z,24.49
2023-03-22T18:29:18.854Z,24.49
2023-03-22T18:33:19.015Z,24.48
2023-03-22T18:37:19.204Z,24.49
2023-03-22T18:41:37.781Z,24.52
2023-03-22T18:45:21.125Z,24.54
2023-03-22T18:49:19.255Z,24.56
2023-03-22T18:53:19.341Z,24.60
2023-03-22T18:57:25.850Z,24.58
2023-03-22T19:01:20.773Z,24.63
2023-03-22T19:05:19.563Z,24.60
2023-03-22T19:09:19.518Z,24.64
2023-03-22T19:13:20.068Z,24.65
2023-03-22T19:17:20.040Z,24.68
2023-03-22T19:21:31.967Z,24.70
2023-03-22T19:25:21.541Z,24.74
2023-03-22T19:29:20.557Z,24.69
2023-03-22T19:33:31.297Z,24.74
2023-03-22T19:37:21.531Z,24.73
2023-03-22T19:41:38.677Z,24.74
2023-03-22T19:45:21.537Z,24.75
2023-03-22T19:49:20.452Z,24.75
2023-03-22T19:54:01.069Z,24.75
2023-03-22T19:57:21.549Z,24.78
2023-03-22T20:01:20.564Z,24.81
2023-03-22T20:05:20.620Z,24.80
2023-03-22T20:09:20.817Z,24.81
2023-03-22T20:13:21.033Z,24.84
2023-03-22T20:17:26.161Z,24.81
2023-03-22T20:21:22.219Z,24.85
2023-03-22T20:25:21.187Z,24.86
2023-03-22T20:29:21.309Z,24.84
2023-03-22T20:33:21.561Z,24.86
2023-03-22T20:37:21.774Z,24.83
2023-03-22T20:41:21.990Z,24.84
2023-03-22T20:45:22.213Z,24.86
2023-03-22T20:49:22.160Z,24.89
2023-03-22T20:53:22.125Z,24.87
2023-03-22T20:57:22.089Z,24.88
2023-03-22T21:01:22.041Z,24.89
2023-03-22T21:05:22.032Z,24.88
2023-03-22T21:09:21.998Z,24.88
2023-03-22T21:13:21.969Z,24.89
2023-03-22T21:17:21.926Z,24.90
2023-03-22T21:21:21.883Z,24.88
2023-03-22T21:25:21.867Z,24.89
2023-03-22T21:29:21.826Z,24.89
2023-03-22T21:33:21.792Z,24.91
2023-03-22T21:37:21.745Z,24.90
2023-03-22T21:41:21.703Z,24.89
2023-03-22T21:45:21.667Z,24.92
2023-03-22T21:49:21.642Z,24.88
2023-03-22T21:53:21.612Z,24.91
2023-03-22T21:57:21.593Z,24.91
2023-03-22T22:01:21.534Z,24.95
2023-03-22T22:05:21.656Z,24.93
2023-03-22T22:09:21.608Z,24.93
2023-03-22T22:13:21.589Z,24.94
2023-03-22T22:17:21.540Z,24.94
2023-03-22T22:21:21.510Z,24.94
2023-03-22T22:25:21.480Z,24.94
2023-03-22T22:29:21.444Z,25.03
2023-03-22T22:33:21.409Z,24.95
2023-03-22T22:37:21.384Z,25.00
2023-03-22T22:41:21.342Z,25.04
2023-03-22T22:45:21.287Z,24.95
2023-03-22T22:49:21.502Z,24.96
2023-03-22T22:53:21.721Z,24.97
2023-03-22T22:57:21.922Z,24.97
2023-03-22T23:01:21.919Z,24.96
2023-03-22T23:05:21.879Z,24.97
2023-03-22T23:09:21.831Z,24.99
2023-03-22T23:13:21.802Z,24.96
2023-03-22T23:17:21.746Z,24.96
2023-03-22T23:21:21.737Z,24.99
2023-03-22T23:25:21.811Z,24.99
2023-03-22T23:29:21.773Z,25.01
2023-03-22T23:33:21.763Z,24.99
2023-03-22T23:37:21.728Z,24.99
2023-03-22T23:41:21.691Z,25.01
2023-03-22T23:45:21.675Z,25.04
2023-03-22T23:49:21.625Z,25.01
2023-03-22T23:53:21.583Z,25.02
2023-03-22T23:57:21.565Z,25.02
